Time;durP1;ratioP1;P1;durP2;ratioP2;P2;SDS_P1;SDS_P2;PMS_P1;PMS_P2;Temp;Humidity;BMP_temperature;BMP_pressure;BME280_temperature;BME280_humidity;BME280_pressure;Samples;Min_cycle;Max_cycle;Signal;HPM_P1;HPM_P2
2023/10/26 00:00:45;;;;;;;1.50;0.40;;;;;;;;;;4995871;28;20459;-69
2023/10/26 00:03:14;;;;;;;1.70;0.70;;;;;;;;;;5009692;28;20475;-67
2023/10/26 00:05:41;;;;;;;2.10;0.47;;;;;;;;;;4986778;28;20563;-67
2023/10/26 00:08:08;;;;;;;2.47;0.57;;;;;;;;;;5011918;28;20852;-68
2023/10/26 00:10:35;;;;;;;1.70;0.70;;;;;;;;;;4997124;28;20491;-68
2023/10/26 00:13:02;;;;;;;2.07;0.70;;;;;;;;;;5001550;28;20815;-68
2023/10/26 00:15:29;;;;;;;1.60;0.50;;;;;;;;;;4987372;28;20482;-70
2023/10/26 00:17:56;;;;;;;1.50;0.40;;;;;;;;;;4983871;28;20448;-67
2023/10/26 00:20:25;;;;;;;2.03;0.60;;;;;;;;;;5001351;28;20447;-68
2023/10/26 00:22:52;;;;;;;2.10;0.60;;;;;;;;;;5008464;28;20473;-68
2023/10/26 00:25:19;;;;;;;1.73;0.60;;;;;;;;;;5007495;28;20481;-67
2023/10/26 00:27:46;;;;;;;3.30;0.60;;;;;;;;;;5003482;28;20870;-67
2023/10/26 00:30:13;;;;;;;1.63;0.60;;;;;;;;;;4996999;28;20575;-67
2023/10/26 00:32:41;;;;;;;1.60;0.50;;;;;;;;;;4992661;28;20959;-68
2023/10/26 00:35:08;;;;;;;1.60;0.60;;;;;;;;;;5004066;28;20970;-68
2023/10/26 00:37:37;;;;;;;1.70;0.50;;;;;;;;;;5000626;28;20472;-66
2023/10/26 00:40:04;;;;;;;3.20;0.70;;;;;;;;;;4981206;28;20461;-68
2023/10/26 00:42:31;;;;;;;1.97;0.80;;;;;;;;;;4982135;28;20452;-68
2023/10/26 00:44:58;;;;;;;1.60;0.60;;;;;;;;;;4987534;28;20446;-66
2023/10/26 00:47:25;;;;;;;1.73;0.60;;;;;;;;;;4997509;28;20443;-67
2023/10/26 00:49:53;;;;;;;1.60;0.50;;;;;;;;;;5002686;28;20522;-66
2023/10/26 00:52:20;;;;;;;1.60;0.60;;;;;;;;;;5011284;28;20448;-67
2023/10/26 00:54:48;;;;;;;1.80;0.50;;;;;;;;;;4998229;28;20462;-68
2023/10/26 00:57:17;;;;;;;1.70;0.50;;;;;;;;;;4989057;28;20467;-67
2023/10/26 00:59:45;;;;;;;1.80;0.70;;;;;;;;;;4992512;28;21014;-67
2023/10/26 01:02:13;;;;;;;1.77;0.70;;;;;;;;;;4981747;28;20971;-67
2023/10/26 01:04:41;;;;;;;2.43;1.10;;;;;;;;;;4990353;28;20481;-67
2023/10/26 01:07:08;;;;;;;1.50;0.50;;;;;;;;;;4982972;28;20575;-67
2023/10/26 01:09:35;;;;;;;1.77;0.80;;;;;;;;;;4993478;28;20457;-67
2023/10/26 01:12:03;;;;;;;1.50;0.50;;;;;;;;;;4999956;28;20470;-67
2023/10/26 01:14:31;;;;;;;1.93;0.80;;;;;;;;;;4987393;28;20479;-67
2023/10/26 01:16:58;;;;;;;1.70;0.70;;;;;;;;;;4979502;28;20516;-66
2023/10/26 01:19:37;;;;;;;1.60;0.60;;;;;;;;;;4996779;28;20802;-67
2023/10/26 01:22:06;;;;;;;1.60;0.60;;;;;;;;;;5011615;28;20522;-68
2023/10/26 01:24:33;;;;;;;1.93;0.70;;;;;;;;;;4987713;28;20901;-68
2023/10/26 01:27:00;;;;;;;2.00;0.50;;;;;;;;;;4982950;28;20524;-67
2023/10/26 01:29:27;;;;;;;5.70;0.70;;;;;;;;;;4983606;28;20532;-68
2023/10/26 01:31:54;;;;;;;1.70;0.60;;;;;;;;;;4993112;28;20842;-69
2023/10/26 01:34:21;;;;;;;3.40;0.43;;;;;;;;;;4982988;28;20440;-68
2023/10/26 01:36:49;;;;;;;1.80;0.70;;;;;;;;;;5004258;28;20467;-68
2023/10/26 01:39:18;;;;;;;1.60;0.50;;;;;;;;;;5001547;28;20997;-68
2023/10/26 01:41:46;;;;;;;1.77;0.77;;;;;;;;;;4991386;28;20449;-67
2023/10/26 01:44:13;;;;;;;1.83;0.67;;;;;;;;;;4996783;28;20891;-67
2023/10/26 01:46:40;;;;;;;1.80;0.70;;;;;;;;;;4985623;28;20577;-65
2023/10/26 01:49:07;;;;;;;1.60;0.60;;;;;;;;;;4997434;28;20483;-66
2023/10/26 01:51:34;;;;;;;2.77;0.67;;;;;;;;;;4992349;28;20464;-68
2023/10/26 01:54:01;;;;;;;1.50;0.43;;;;;;;;;;4976148;28;20478;-67
2023/10/26 01:56:30;;;;;;;1.80;0.70;;;;;;;;;;4983555;28;20469;-66
2023/10/26 01:58:57;;;;;;;1.90;0.90;;;;;;;;;;5001461;28;21050;-67
2023/10/26 02:01:25;;;;;;;1.60;0.53;;;;;;;;;;4982258;28;20494;-69
2023/10/26 02:03:52;;;;;;;3.77;0.80;;;;;;;;;;4988191;28;20544;-66
2023/10/26 02:06:19;;;;;;;3.10;0.63;;;;;;;;;;4988500;28;20538;-66
2023/10/26 02:08:46;;;;;;;1.60;0.53;;;;;;;;;;5010249;28;20467;-67
2023/10/26 02:11:13;;;;;;;2.20;0.87;;;;;;;;;;5000019;28;20456;-67
2023/10/26 02:13:42;;;;;;;1.70;0.60;;;;;;;;;;4984301;28;20434;-68
2023/10/26 02:16:09;;;;;;;1.60;0.50;;;;;;;;;;4988300;28;20469;-67
2023/10/26 02:18:36;;;;;;;1.60;0.50;;;;;;;;;;4998207;28;20934;-67
2023/10/26 02:21:05;;;;;;;1.60;0.50;;;;;;;;;;5001424;28;20903;-67
2023/10/26 02:23:32;;;;;;;1.83;0.70;;;;;;;;;;4995077;28;20571;-67
2023/10/26 02:26:01;;;;;;;1.80;0.60;;;;;;;;;;4999242;28;20552;-66
2023/10/26 02:28:28;;;;;;;4.17;0.73;;;;;;;;;;4999768;28;20796;-67
2023/10/26 02:30:56;;;;;;;1.60;0.60;;;;;;;;;;4983370;28;20456;-68
2023/10/26 02:33:23;;;;;;;1.70;0.60;;;;;;;;;;4996266;28;20444;-67
2023/10/26 02:35:50;;;;;;;1.87;0.57;;;;;;;;;;5014618;28;20459;-66
2023/10/26 02:38:17;;;;;;;4.03;0.50;;;;;;;;;;5002907;28;20444;-67
2023/10/26 02:40:45;;;;;;;3.70;0.80;;;;;;;;;;4978603;28;20456;-67
2023/10/26 02:43:12;;;;;;;1.70;0.60;;;;;;;;;;4993036;28;20451;-66
2023/10/26 02:45:40;;;;;;;1.70;0.60;;;;;;;;;;4984659;28;20551;-67
2023/10/26 02:48:08;;;;;;;1.73;0.60;;;;;;;;;;4998907;28;20445;-67
2023/10/26 02:50:35;;;;;;;1.50;0.50;;;;;;;;;;4991043;28;20469;-67
2023/10/26 02:53:02;;;;;;;1.90;0.50;;;;;;;;;;4984752;28;20936;-67
2023/10/26 02:55:30;;;;;;;1.60;0.50;;;;;;;;;;5001850;28;20675;-68
2023/10/26 02:57:58;;;;;;;1.60;0.50;;;;;;;;;;5005055;28;20451;-67
2023/10/26 03:00:25;;;;;;;1.80;0.53;;;;;;;;;;5013825;28;20498;-67
2023/10/26 03:02:52;;;;;;;2.10;0.93;;;;;;;;;;4999549;28;20467;-68
2023/10/26 03:05:20;;;;;;;1.60;0.50;;;;;;;;;;5007839;28;20489;-67
2023/10/26 03:07:47;;;;;;;1.80;0.80;;;;;;;;;;5012527;28;20459;-68
2023/10/26 03:10:14;;;;;;;1.57;0.50;;;;;;;;;;5011634;28;20531;-67
2023/10/26 03:12:41;;;;;;;1.57;0.57;;;;;;;;;;4997655;28;20460;-67
2023/10/26 03:15:09;;;;;;;1.60;0.70;;;;;;;;;;4993350;28;20605;-70
2023/10/26 03:17:36;;;;;;;1.60;0.50;;;;;;;;;;4991248;28;20461;-66
2023/10/26 03:20:05;;;;;;;1.77;0.60;;;;;;;;;;4989484;28;20458;-69
2023/10/26 03:22:33;;;;;;;1.80;0.60;;;;;;;;;;4998404;28;20456;-66
2023/10/26 03:25:00;;;;;;;2.00;0.70;;;;;;;;;;4978466;28;20589;-70
2023/10/26 03:27:27;;;;;;;1.77;0.70;;;;;;;;;;4986179;28;20448;-69
2023/10/26 03:29:54;;;;;;;1.60;0.53;;;;;;;;;;5007340;28;20444;-69
2023/10/26 03:32:21;;;;;;;1.60;0.50;;;;;;;;;;4994091;28;20496;-68
2023/10/26 03:34:49;;;;;;;1.73;0.70;;;;;;;;;;4995552;28;20452;-69
2023/10/26 03:37:16;;;;;;;1.60;0.60;;;;;;;;;;5008081;28;20490;-69
2023/10/26 03:39:44;;;;;;;3.30;0.80;;;;;;;;;;4990970;28;20466;-68
2023/10/26 03:42:12;;;;;;;1.70;0.63;;;;;;;;;;5001667;28;20837;-69
2023/10/26 03:44:39;;;;;;;1.50;0.50;;;;;;;;;;4987683;28;20509;-69
2023/10/26 03:47:06;;;;;;;2.20;1.17;;;;;;;;;;4996212;28;20703;-69
2023/10/26 03:49:34;;;;;;;1.70;0.70;;;;;;;;;;5001296;28;20453;-69
2023/10/26 03:52:01;;;;;;;1.70;0.70;;;;;;;;;;4993496;28;20904;-68
2023/10/26 03:54:28;;;;;;;1.50;0.50;;;;;;;;;;4996093;28;20461;-66
2023/10/26 03:56:56;;;;;;;1.80;0.60;;;;;;;;;;4993610;28;20481;-66
2023/10/26 03:59:23;;;;;;;1.70;0.60;;;;;;;;;;5008860;28;20938;-67
2023/10/26 04:01:50;;;;;;;2.53;0.80;;;;;;;;;;4987801;28;20483;-67
2023/10/26 04:04:17;;;;;;;2.00;0.70;;;;;;;;;;4989986;28;20523;-66
2023/10/26 04:06:45;;;;;;;1.70;0.70;;;;;;;;;;4998641;28;20481;-66
2023/10/26 04:09:13;;;;;;;2.13;0.50;;;;;;;;;;5006322;28;20464;-66
2023/10/26 04:11:42;;;;;;;1.70;0.40;;;;;;;;;;5006668;28;20448;-67
2023/10/26 04:14:10;;;;;;;1.80;0.77;;;;;;;;;;4984598;28;20441;-67
2023/10/26 04:16:37;;;;;;;1.90;0.67;;;;;;;;;;4998557;28;20464;-66
2023/10/26 04:19:05;;;;;;;2.00;0.80;;;;;;;;;;4997597;28;20460;-67
2023/10/26 04:21:33;;;;;;;1.93;0.90;;;;;;;;;;5009186;28;20535;-68
2023/10/26 04:24:00;;;;;;;2.03;0.87;;;;;;;;;;4990702;28;20985;-68
2023/10/26 04:26:27;;;;;;;1.90;0.90;;;;;;;;;;4990020;28;20591;-68
2023/10/26 04:28:54;;;;;;;2.43;0.90;;;;;;;;;;5001575;28;20459;-67
2023/10/26 04:31:22;;;;;;;1.80;0.73;;;;;;;;;;5001827;28;20451;-67
2023/10/26 04:33:50;;;;;;;2.57;0.60;;;;;;;;;;4991285;28;20450;-68
2023/10/26 04:36:17;;;;;;;1.60;0.60;;;;;;;;;;5003090;28;20467;-68
2023/10/26 04:38:44;;;;;;;1.90;0.67;;;;;;;;;;4996108;28;20443;-68
2023/10/26 04:41:11;;;;;;;1.80;0.70;;;;;;;;;;5012154;28;20444;-67
2023/10/26 04:43:38;;;;;;;2.30;0.60;;;;;;;;;;4992079;28;20469;-67
2023/10/26 04:46:05;;;;;;;1.70;0.70;;;;;;;;;;4993867;28;20464;-67
2023/10/26 04:48:34;;;;;;;1.90;0.77;;;;;;;;;;4989735;28;20463;-67
2023/10/26 04:51:01;;;;;;;2.30;0.87;;;;;;;;;;5007334;28;20459;-68
2023/10/26 04:53:28;;;;;;;1.70;0.50;;;;;;;;;;5010610;28;20492;-68
2023/10/26 04:55:55;;;;;;;1.87;0.67;;;;;;;;;;4992376;28;20490;-70
2023/10/26 04:58:23;;;;;;;2.17;0.80;;;;;;;;;;5011956;28;20451;-67
2023/10/26 05:00:50;;;;;;;1.70;0.60;;;;;;;;;;5001920;28;20449;-69
2023/10/26 05:03:17;;;;;;;1.90;0.80;;;;;;;;;;4995942;28;20815;-69
2023/10/26 05:05:45;;;;;;;3.00;1.00;;;;;;;;;;5003495;28;20490;-67
2023/10/26 05:08:13;;;;;;;1.70;0.60;;;;;;;;;;5008158;28;20452;-67
2023/10/26 05:10:41;;;;;;;2.23;0.80;;;;;;;;;;5011056;28;20467;-67
2023/10/26 05:13:10;;;;;;;1.70;0.70;;;;;;;;;;5004875;28;20541;-67
2023/10/26 05:15:37;;;;;;;1.70;0.67;;;;;;;;;;4987090;28;20473;-67
2023/10/26 05:18:04;;;;;;;1.80;0.90;;;;;;;;;;4998890;28;20452;-67
2023/10/26 05:20:32;;;;;;;1.70;0.70;;;;;;;;;;5000320;28;20456;-67
2023/10/26 05:23:02;;;;;;;2.03;0.83;;;;;;;;;;5003920;28;20960;-67
2023/10/26 05:25:30;;;;;;;2.37;0.93;;;;;;;;;;4996977;28;20982;-68
2023/10/26 05:27:57;;;;;;;1.90;0.80;;;;;;;;;;4997491;28;20456;-68
2023/10/26 05:30:24;;;;;;;2.10;0.77;;;;;;;;;;5006928;28;20440;-67
2023/10/26 05:32:51;;;;;;;1.70;0.70;;;;;;;;;;5008311;28;20453;-68
2023/10/26 05:35:19;;;;;;;1.97;0.80;;;;;;;;;;4976869;28;20477;-68
2023/10/26 05:37:46;;;;;;;2.67;0.90;;;;;;;;;;5005107;28;20459;-68
2023/10/26 05:40:15;;;;;;;1.80;0.60;;;;;;;;;;5004776;28;20538;-68
2023/10/26 05:42:41;;;;;;;3.53;0.80;;;;;;;;;;5011235;28;20455;-68
2023/10/26 05:45:08;;;;;;;3.03;1.00;;;;;;;;;;4990808;28;21069;-67
2023/10/26 05:47:35;;;;;;;7.07;0.80;;;;;;;;;;5001446;28;20462;-67
2023/10/26 05:50:03;;;;;;;2.00;0.90;;;;;;;;;;4999118;28;20467;-67
2023/10/26 05:52:30;;;;;;;3.47;1.10;;;;;;;;;;5014522;28;20449;-67
2023/10/26 05:54:57;;;;;;;2.17;0.80;;;;;;;;;;4991382;28;20464;-67
2023/10/26 05:57:27;;;;;;;2.00;0.80;;;;;;;;;;5002832;28;20455;-68
2023/10/26 05:59:54;;;;;;;2.43;1.00;;;;;;;;;;5015902;28;20868;-67
2023/10/26 06:02:21;;;;;;;2.17;0.90;;;;;;;;;;4991297;28;20455;-67
2023/10/26 06:04:49;;;;;;;1.83;0.80;;;;;;;;;;5001466;28;20561;-67
2023/10/26 06:07:16;;;;;;;2.10;1.00;;;;;;;;;;5014678;28;20505;-68
2023/10/26 06:09:43;;;;;;;2.20;0.80;;;;;;;;;;4995059;28;20869;-67
2023/10/26 06:12:10;;;;;;;3.07;1.03;;;;;;;;;;5010727;28;20440;-67
2023/10/26 06:14:38;;;;;;;2.00;0.70;;;;;;;;;;4984186;28;20469;-67
2023/10/26 06:17:05;;;;;;;1.70;0.50;;;;;;;;;;4976631;28;20481;-67
2023/10/26 06:19:33;;;;;;;1.80;0.53;;;;;;;;;;4984945;28;20513;-67
2023/10/26 06:22:00;;;;;;;1.87;0.80;;;;;;;;;;4981284;28;20499;-67
2023/10/26 06:24:28;;;;;;;1.77;0.77;;;;;;;;;;4986797;28;20485;-67
2023/10/26 06:26:55;;;;;;;2.13;0.70;;;;;;;;;;4974711;28;20560;-69
2023/10/26 06:29:22;;;;;;;2.07;0.80;;;;;;;;;;4983592;28;20532;-69
2023/10/26 06:31:50;;;;;;;2.60;1.30;;;;;;;;;;4993842;28;20539;-68
2023/10/26 06:34:17;;;;;;;1.70;0.60;;;;;;;;;;4992401;28;20460;-68
2023/10/26 06:36:45;;;;;;;3.73;0.57;;;;;;;;;;4989863;28;20476;-67
2023/10/26 06:39:12;;;;;;;1.70;0.80;;;;;;;;;;5007325;28;20467;-67
2023/10/26 06:41:39;;;;;;;1.60;0.47;;;;;;;;;;5006201;28;20453;-66
2023/10/26 06:44:06;;;;;;;2.63;1.13;;;;;;;;;;4995169;28;20448;-67
2023/10/26 06:46:33;;;;;;;2.60;1.00;;;;;;;;;;4994437;28;20862;-67
2023/10/26 06:49:01;;;;;;;1.90;0.87;;;;;;;;;;5006399;28;20451;-67
2023/10/26 06:51:29;;;;;;;2.93;1.00;;;;;;;;;;4999076;28;20464;-67
2023/10/26 06:53:57;;;;;;;2.10;1.00;;;;;;;;;;5008945;28;20543;-68
2023/10/26 06:56:24;;;;;;;1.90;0.90;;;;;;;;;;5001685;28;20471;-67
2023/10/26 06:58:51;;;;;;;5.20;1.10;;;;;;;;;;4993379;28;20448;-67
2023/10/26 07:01:18;;;;;;;1.70;0.80;;;;;;;;;;4985545;28;20827;-67
2023/10/26 07:03:45;;;;;;;1.50;0.50;;;;;;;;;;4992350;28;20521;-66
2023/10/26 07:06:13;;;;;;;7.70;0.80;;;;;;;;;;5018636;23;20487;-66
2023/10/26 07:08:40;;;;;;;1.80;0.70;;;;;;;;;;5010207;28;20793;-66
2023/10/26 07:11:08;;;;;;;1.73;0.60;;;;;;;;;;4992776;28;20468;-67
2023/10/26 07:13:35;;;;;;;1.57;0.60;;;;;;;;;;4999741;28;20455;-67
2023/10/26 07:16:03;;;;;;;2.13;0.83;;;;;;;;;;4981616;28;20481;-67
2023/10/26 07:18:30;;;;;;;4.20;1.53;;;;;;;;;;4984774;28;20520;-67
2023/10/26 07:20:57;;;;;;;7.97;3.83;;;;;;;;;;4973287;28;20493;-66
2023/10/26 07:23:25;;;;;;;5.40;2.47;;;;;;;;;;4993075;28;20851;-66
2023/10/26 07:25:52;;;;;;;3.53;1.43;;;;;;;;;;4984218;28;20865;-66
2023/10/26 07:28:19;;;;;;;2.23;1.03;;;;;;;;;;4981009;28;20460;-67
2023/10/26 07:30:50;;;;;;;2.10;0.97;;;;;;;;;;4978850;28;20469;-67
2023/10/26 07:33:19;;;;;;;2.20;0.90;;;;;;;;;;4993396;28;20484;-67
2023/10/26 07:35:50;;;;;;;2.40;0.80;;;;;;;;;;4984417;28;20477;-67
2023/10/26 07:38:17;;;;;;;1.80;0.70;;;;;;;;;;4993250;28;20865;-67
2023/10/26 07:40:50;;;;;;;2.83;0.80;;;;;;;;;;4981498;28;20465;-66
2023/10/26 07:43:17;;;;;;;2.20;1.20;;;;;;;;;;4993834;28;20441;-67
2023/10/26 07:45:44;;;;;;;6.60;0.83;;;;;;;;;;4984465;28;21022;-67
2023/10/26 07:48:11;;;;;;;2.97;1.00;;;;;;;;;;4993558;28;20480;-67
2023/10/26 07:50:38;;;;;;;2.50;1.03;;;;;;;;;;4976284;28;20500;-66
2023/10/26 07:53:06;;;;;;;3.50;1.43;;;;;;;;;;4983535;28;20506;-67
2023/10/26 07:55:33;;;;;;;4.03;1.20;;;;;;;;;;4993496;28;20464;-67
2023/10/26 07:58:01;;;;;;;3.47;1.30;;;;;;;;;;4985834;28;20448;-70
2023/10/26 08:00:28;;;;;;;1.80;0.90;;;;;;;;;;4978014;28;20467;-67
2023/10/26 08:02:56;;;;;;;1.90;0.80;;;;;;;;;;4979245;28;20830;-66
2023/10/26 08:05:23;;;;;;;3.77;1.13;;;;;;;;;;4988701;28;20998;-67
2023/10/26 08:07:52;;;;;;;2.53;0.93;;;;;;;;;;4984989;28;20447;-67
2023/10/26 08:10:19;;;;;;;2.30;1.40;;;;;;;;;;4980782;28;20511;-66
2023/10/26 08:12:46;;;;;;;1.93;0.90;;;;;;;;;;4978287;28;20445;-67
2023/10/26 08:15:14;;;;;;;2.20;0.90;;;;;;;;;;4981038;28;20496;-66
2023/10/26 08:17:41;;;;;;;3.27;1.20;;;;;;;;;;4986481;28;20441;-67
2023/10/26 08:20:09;;;;;;;1.90;0.90;;;;;;;;;;4984884;28;20452;-66
2023/10/26 08:22:36;;;;;;;2.43;0.70;;;;;;;;;;4986508;28;20468;-67
2023/10/26 08:25:04;;;;;;;2.07;1.10;;;;;;;;;;4993027;28;20492;-67
2023/10/26 08:27:32;;;;;;;3.07;1.13;;;;;;;;;;4981014;28;20941;-67
2023/10/26 08:29:59;;;;;;;3.03;1.30;;;;;;;;;;4983774;28;20453;-67
2023/10/26 08:32:27;;;;;;;2.57;1.13;;;;;;;;;;4990023;28;20448;-68
2023/10/26 08:34:54;;;;;;;5.57;1.20;;;;;;;;;;4991785;28;20547;-67
2023/10/26 08:37:21;;;;;;;1.60;0.63;;;;;;;;;;4980151;28;20552;-67
2023/10/26 08:39:49;;;;;;;2.53;1.10;;;;;;;;;;4990274;28;20467;-67
2023/10/26 08:42:17;;;;;;;3.20;1.53;;;;;;;;;;4977442;28;20841;-69
2023/10/26 08:44:44;;;;;;;2.90;0.90;;;;;;;;;;4985949;28;20886;-67
2023/10/26 08:47:14;;;;;;;2.40;0.80;;;;;;;;;;4977473;28;20489;-67
2023/10/26 08:49:44;;;;;;;3.40;1.10;;;;;;;;;;4985572;28;20517;-67
2023/10/26 08:52:11;;;;;;;2.53;0.97;;;;;;;;;;4976896;28;20889;-67
2023/10/26 08:54:38;;;;;;;2.30;1.20;;;;;;;;;;4992287;28;20943;-68
2023/10/26 08:57:08;;;;;;;2.20;1.03;;;;;;;;;;4983130;28;20473;-68
2023/10/26 08:59:35;;;;;;;2.10;0.77;;;;;;;;;;4976067;28;20466;-66
2023/10/26 09:02:02;;;;;;;2.13;0.87;;;;;;;;;;4984951;28;20442;-68
2023/10/26 09:04:30;;;;;;;2.20;1.03;;;;;;;;;;4991297;28;20476;-66
2023/10/26 09:06:58;;;;;;;2.67;1.03;;;;;;;;;;4986358;28;20507;-65
2023/10/26 09:09:25;;;;;;;1.60;0.60;;;;;;;;;;4989010;28;20465;-65
2023/10/26 09:11:52;;;;;;;2.73;0.80;;;;;;;;;;4987053;28;20456;-66
2023/10/26 09:14:20;;;;;;;2.07;1.27;;;;;;;;;;4982631;28;20453;-66
2023/10/26 09:16:48;;;;;;;2.83;1.17;;;;;;;;;;4970437;28;20477;-67
2023/10/26 09:19:15;;;;;;;3.17;1.40;;;;;;;;;;4974100;28;20522;-68
2023/10/26 09:21:52;;;;;;;1.77;0.80;;;;;;;;;;4984433;28;20472;-68
2023/10/26 09:24:24;;;;;;;1.90;0.70;;;;;;;;;;4973005;28;20950;-66
2023/10/26 09:26:51;;;;;;;5.20;0.97;;;;;;;;;;4991886;28;21009;-68
2023/10/26 09:29:19;;;;;;;1.90;0.80;;;;;;;;;;4985594;28;20469;-68
2023/10/26 09:31:53;;;;;;;2.13;0.87;;;;;;;;;;4992105;28;20535;-67
2023/10/26 09:34:23;;;;;;;2.60;1.03;;;;;;;;;;4990361;28;20492;-66
2023/10/26 09:37:00;;;;;;;4.43;0.90;;;;;;;;;;4982314;28;20469;-65
2023/10/26 09:39:30;;;;;;;1.87;0.90;;;;;;;;;;4987338;28;20465;-66
2023/10/26 09:41:59;;;;;;;2.00;0.90;;;;;;;;;;4983141;28;20477;-68
2023/10/26 09:44:26;;;;;;;2.37;0.83;;;;;;;;;;4991177;28;20453;-67
2023/10/26 09:46:53;;;;;;;3.50;1.30;;;;;;;;;;4989557;28;20492;-66
2023/10/26 09:49:21;;;;;;;1.60;0.60;;;;;;;;;;4987366;28;20461;-67
2023/10/26 09:51:48;;;;;;;1.60;0.60;;;;;;;;;;4984148;28;20449;-66
2023/10/26 09:54:16;;;;;;;3.97;0.97;;;;;;;;;;4977356;28;20551;-69
2023/10/26 09:56:46;;;;;;;3.60;0.90;;;;;;;;;;4986597;28;20991;-66
2023/10/26 09:59:14;;;;;;;2.00;0.80;;;;;;;;;;4961954;28;20733;-66
2023/10/26 10:01:41;;;;;;;1.60;0.70;;;;;;;;;;4985010;28;20559;-69
2023/10/26 10:04:09;;;;;;;1.70;0.63;;;;;;;;;;4991975;28;20452;-66
2023/10/26 10:06:47;;;;;;;4.37;1.70;;;;;;;;;;4984871;28;20496;-66
2023/10/26 10:09:16;;;;;;;2.20;0.90;;;;;;;;;;4970982;28;20520;-66
2023/10/26 10:11:44;;;;;;;3.60;1.13;;;;;;;;;;4977425;28;20462;-66
2023/10/26 10:14:42;;;;;;;2.47;0.80;;;;;;;;;;4971087;28;20449;-66
2023/10/26 10:17:10;;;;;;;2.93;0.73;;;;;;;;;;4973432;28;20475;-66
2023/10/26 10:19:40;;;;;;;1.90;0.80;;;;;;;;;;4984640;28;20463;-66
2023/10/26 10:22:27;;;;;;;1.90;0.80;;;;;;;;;;4978787;28;20448;-66
2023/10/26 10:24:54;;;;;;;1.97;0.70;;;;;;;;;;4976442;28;20460;-66
2023/10/26 10:27:23;;;;;;;2.10;0.77;;;;;;;;;;4990617;28;20492;-66
2023/10/26 10:29:50;;;;;;;2.63;1.37;;;;;;;;;;4986130;28;20442;-66
2023/10/26 10:32:38;;;;;;;2.67;1.30;;;;;;;;;;4982652;28;20468;-66
2023/10/26 10:35:08;;;;;;;2.10;1.00;;;;;;;;;;4974558;28;20473;-66
2023/10/26 10:37:35;;;;;;;2.90;1.67;;;;;;;;;;4988905;28;20821;-66
2023/10/26 10:40:12;;;;;;;2.60;1.20;;;;;;;;;;4980442;28;20438;-66
2023/10/26 10:42:40;;;;;;;3.00;1.30;;;;;;;;;;4978983;28;20496;-67
2023/10/26 10:45:12;;;;;;;2.20;1.27;;;;;;;;;;4977329;28;20481;-66
2023/10/26 10:47:39;;;;;;;2.33;1.30;;;;;;;;;;4991832;28;20510;-66
2023/10/26 10:50:21;;;;;;;2.43;0.87;;;;;;;;;;4990269;28;20947;-66
2023/10/26 10:52:49;;;;;;;2.87;1.57;;;;;;;;;;4972842;28;20441;-66
2023/10/26 10:55:20;;;;;;;4.93;1.63;;;;;;;;;;4976219;28;20515;-67
2023/10/26 10:57:55;;;;;;;2.30;1.27;;;;;;;;;;4975780;28;20824;-66
2023/10/26 11:00:22;;;;;;;3.00;1.80;;;;;;;;;;4978489;28;20459;-66
2023/10/26 11:02:49;;;;;;;6.40;1.80;;;;;;;;;;4976717;28;20449;-65
2023/10/26 11:05:17;;;;;;;2.63;2.20;;;;;;;;;;4990524;28;20861;-67
2023/10/26 11:07:44;;;;;;;3.40;1.40;;;;;;;;;;4992245;28;20476;-66
2023/10/26 11:10:11;;;;;;;3.93;1.63;;;;;;;;;;4990184;28;20449;-65
2023/10/26 11:12:38;;;;;;;3.33;1.80;;;;;;;;;;4984625;28;20767;-67
2023/10/26 11:15:08;;;;;;;3.93;1.80;;;;;;;;;;4978461;28;20469;-67
2023/10/26 11:17:38;;;;;;;3.30;1.90;;;;;;;;;;4994008;28;20913;-66
2023/10/26 11:20:05;;;;;;;2.20;1.23;;;;;;;;;;4988211;28;20457;-66
2023/10/26 11:22:32;;;;;;;2.00;1.03;;;;;;;;;;4985829;28;20456;-67
2023/10/26 11:24:59;;;;;;;5.63;2.30;;;;;;;;;;4975690;28;20465;-66
2023/10/26 11:27:27;;;;;;;2.40;1.20;;;;;;;;;;4973613;28;20515;-66
2023/10/26 11:30:04;;;;;;;2.87;1.30;;;;;;;;;;4981523;28;20909;-67
2023/10/26 11:32:34;;;;;;;1.80;0.93;;;;;;;;;;4989587;28;20821;-66
2023/10/26 11:35:08;;;;;;;2.30;1.50;;;;;;;;;;4982752;28;20914;-66
2023/10/26 11:37:35;;;;;;;2.80;1.40;;;;;;;;;;4992951;28;20449;-66
2023/10/26 11:40:03;;;;;;;2.70;1.87;;;;;;;;;;4974208;28;20470;-66
2023/10/26 11:42:48;;;;;;;3.30;1.33;;;;;;;;;;4988309;28;20888;-67
2023/10/26 11:45:16;;;;;;;3.17;1.37;;;;;;;;;;4981139;28;20473;-65
2023/10/26 11:47:51;;;;;;;2.50;1.37;;;;;;;;;;4991360;28;20968;-66
2023/10/26 11:50:21;;;;;;;3.63;1.07;;;;;;;;;;4972956;28;20970;-66
2023/10/26 11:52:49;;;;;;;5.20;1.70;;;;;;;;;;4980995;28;20448;-66
2023/10/26 11:55:17;;;;;;;2.77;1.37;;;;;;;;;;4975910;28;20477;-66
2023/10/26 11:57:44;;;;;;;2.70;1.37;;;;;;;;;;4993489;28;20449;-66
2023/10/26 12:00:12;;;;;;;2.70;1.60;;;;;;;;;;4988819;28;20469;-66
2023/10/26 12:02:40;;;;;;;2.93;1.87;;;;;;;;;;4983416;28;20453;-67
2023/10/26 12:05:09;;;;;;;2.50;1.60;;;;;;;;;;4980271;28;20822;-66
2023/10/26 12:07:36;;;;;;;2.90;1.80;;;;;;;;;;4992599;28;21002;-66
2023/10/26 12:10:04;;;;;;;2.00;1.27;;;;;;;;;;4977355;28;20465;-66
2023/10/26 12:12:31;;;;;;;2.47;1.50;;;;;;;;;;4972028;28;20434;-67
2023/10/26 12:14:58;;;;;;;2.50;1.30;;;;;;;;;;4978620;28;20445;-67
2023/10/26 12:17:25;;;;;;;2.10;1.30;;;;;;;;;;4982988;28;20448;-66
2023/10/26 12:19:52;;;;;;;2.20;1.30;;;;;;;;;;4985674;28;20442;-66
2023/10/26 12:22:20;;;;;;;2.20;0.90;;;;;;;;;;4983131;28;20461;-66
2023/10/26 12:24:47;;;;;;;1.90;1.07;;;;;;;;;;4982843;28;20938;-66
2023/10/26 12:27:16;;;;;;;2.03;1.00;;;;;;;;;;4972517;28;20834;-67
2023/10/26 12:29:43;;;;;;;2.43;1.33;;;;;;;;;;4990416;28;20453;-67
2023/10/26 12:32:10;;;;;;;2.20;1.20;;;;;;;;;;4986196;28;20951;-66
2023/10/26 12:34:37;;;;;;;1.90;0.83;;;;;;;;;;4989371;28;20441;-67
2023/10/26 12:37:05;;;;;;;1.70;0.60;;;;;;;;;;4992512;28;20456;-67
2023/10/26 12:39:33;;;;;;;2.20;0.97;;;;;;;;;;4988136;28;20457;-67
2023/10/26 12:42:01;;;;;;;1.70;0.73;;;;;;;;;;4990883;28;20485;-66
2023/10/26 12:44:29;;;;;;;1.90;0.80;;;;;;;;;;4990221;28;20445;-67
2023/10/26 12:46:56;;;;;;;2.10;0.93;;;;;;;;;;4984392;28;21017;-67
2023/10/26 12:49:23;;;;;;;2.97;1.17;;;;;;;;;;4990769;28;20516;-66
2023/10/26 12:51:50;;;;;;;2.47;1.23;;;;;;;;;;4982071;28;20453;-67
2023/10/26 12:54:18;;;;;;;2.80;1.07;;;;;;;;;;4974599;28;20549;-66
2023/10/26 12:56:46;;;;;;;2.70;1.33;;;;;;;;;;4974947;28;20481;-66
2023/10/26 12:59:13;;;;;;;3.37;1.73;;;;;;;;;;4969534;28;20450;-67
2023/10/26 13:01:40;;;;;;;3.70;1.43;;;;;;;;;;4975773;28;20454;-67
2023/10/26 13:04:07;;;;;;;4.13;2.30;;;;;;;;;;4992187;28;20443;-66
2023/10/26 13:06:35;;;;;;;3.17;1.83;;;;;;;;;;5011672;23;20710;-66
2023/10/26 13:09:02;;;;;;;4.30;1.80;;;;;;;;;;4984602;28;20449;-66
2023/10/26 13:11:29;;;;;;;4.27;2.23;;;;;;;;;;4981505;28;20445;-66
2023/10/26 13:13:57;;;;;;;3.10;1.50;;;;;;;;;;4979874;28;20936;-66
2023/10/26 13:16:24;;;;;;;6.33;3.10;;;;;;;;;;4979682;28;20511;-67
2023/10/26 13:18:52;;;;;;;2.80;2.10;;;;;;;;;;4990900;28;20500;-66
2023/10/26 13:21:19;;;;;;;2.03;1.30;;;;;;;;;;4982077;28;20441;-66
2023/10/26 13:23:46;;;;;;;3.33;1.60;;;;;;;;;;4980825;28;20789;-66
2023/10/26 13:26:13;;;;;;;2.60;1.47;;;;;;;;;;4978546;28;20508;-66
2023/10/26 13:28:41;;;;;;;2.23;1.27;;;;;;;;;;4985480;28;20485;-66
2023/10/26 13:31:09;;;;;;;2.90;1.13;;;;;;;;;;4984161;28;20442;-66
2023/10/26 13:33:36;;;;;;;2.53;1.00;;;;;;;;;;4986048;28;20842;-68
2023/10/26 13:36:03;;;;;;;2.20;0.90;;;;;;;;;;4982297;28;20498;-66
2023/10/26 13:38:30;;;;;;;3.63;1.30;;;;;;;;;;4965383;28;20464;-66
2023/10/26 13:40:57;;;;;;;2.30;1.17;;;;;;;;;;4983847;28;20483;-66
2023/10/26 13:43:25;;;;;;;2.20;1.20;;;;;;;;;;4988169;28;20496;-66
2023/10/26 13:45:52;;;;;;;2.40;1.20;;;;;;;;;;4988391;28;20469;-66
2023/10/26 13:48:20;;;;;;;2.87;1.50;;;;;;;;;;4963043;28;20968;-66
2023/10/26 13:50:47;;;;;;;2.90;1.37;;;;;;;;;;4978061;28;20453;-66
2023/10/26 13:53:14;;;;;;;2.43;1.20;;;;;;;;;;4974645;28;20453;-66
2023/10/26 13:55:41;;;;;;;5.50;1.70;;;;;;;;;;4972644;28;20502;-66
2023/10/26 13:58:08;;;;;;;2.40;1.13;;;;;;;;;;4970891;28;20446;-66
2023/10/26 14:00:37;;;;;;;2.97;1.30;;;;;;;;;;4975991;28;20445;-66
2023/10/26 14:03:04;;;;;;;2.43;1.30;;;;;;;;;;4971710;28;20448;-66
2023/10/26 14:05:33;;;;;;;3.27;1.67;;;;;;;;;;4987402;28;20583;-66
2023/10/26 14:08:00;;;;;;;2.30;1.40;;;;;;;;;;4968351;28;20489;-66
2023/10/26 14:10:27;;;;;;;3.07;1.80;;;;;;;;;;4980082;28;20458;-66
2023/10/26 14:12:54;;;;;;;2.40;1.00;;;;;;;;;;4991638;28;20451;-66
2023/10/26 14:15:21;;;;;;;2.77;1.40;;;;;;;;;;4979309;28;20470;-66
2023/10/26 14:17:48;;;;;;;2.17;0.90;;;;;;;;;;4980325;28;20449;-66
2023/10/26 14:20:15;;;;;;;3.33;1.20;;;;;;;;;;4988821;28;20433;-66
2023/10/26 14:22:44;;;;;;;3.30;1.40;;;;;;;;;;4983907;28;20462;-66
2023/10/26 14:25:11;;;;;;;3.23;1.13;;;;;;;;;;4966520;28;20821;-66
2023/10/26 14:27:39;;;;;;;4.50;1.10;;;;;;;;;;4963961;28;20487;-65
2023/10/26 14:30:06;;;;;;;2.43;0.90;;;;;;;;;;4992801;28;20866;-65
2023/10/26 14:32:33;;;;;;;6.10;0.97;;;;;;;;;;4980410;28;20453;-65
2023/10/26 14:35:01;;;;;;;7.20;1.23;;;;;;;;;;4978560;28;20468;-65
2023/10/26 14:37:28;;;;;;;2.23;0.87;;;;;;;;;;4988127;28;20460;-65
2023/10/26 14:39:57;;;;;;;2.00;0.80;;;;;;;;;;4969227;28;20463;-65
2023/10/26 14:42:24;;;;;;;3.70;0.60;;;;;;;;;;4991720;28;20451;-65
2023/10/26 14:44:51;;;;;;;1.70;0.60;;;;;;;;;;4978161;28;20466;-65
2023/10/26 14:47:18;;;;;;;1.90;0.70;;;;;;;;;;4988418;28;20604;-65